weather.gov     
National Weather Service

Terminal Aerodrome Forecast
NWS Homepage
This page is being discontinued on March 12, 2014.
The same data is available at this site. Please update your bookmarks.
Thank you, and we apologize for the inconvenience.
Please send an email to SR-SRH.Webmaster@noaa.gov with any concerns.


Current Version
Previous Version:    01  02  03  04  05  06  07  08  09  10  11  12  13  14  15  16  17  18  19  20  21  22  23  24  25  26  27  28  29  30  
   31  32  33  34  35  36  37  38  39  
[Printable]
881
FTUS44 KMEG 180551 AAA
TAFJBR
TAF AMD
KJBR 180551Z 1806/1906 33003KT 5SM BR VCSH OVC060
      TEMPO 1806/1807 4SM RA BR SCT020 BKN040
     FM180700 05005KT 4SM -RA BR SCT009 OVC020
     FM181100 10003KT 6SM BR BKN007 OVC015
     FM181800 09003KT P6SM OVC015=




881
FTUS44 KMEG 180551 AAA
TAFJBR
TAF AMD
KJBR 180551Z 1806/1906 33003KT 5SM BR VCSH OVC060
      TEMPO 1806/1807 4SM RA BR SCT020 BKN040
     FM180700 05005KT 4SM -RA BR SCT009 OVC020
     FM181100 10003KT 6SM BR BKN007 OVC015
     FM181800 09003KT P6SM OVC015=


U.S. Dept. of Commerce
NOAA National Weather Service
1325 East West Highway
Silver Spring, MD 20910
E-mail: w-nws.webmaster@noaa.gov
Page last modified: May 16, 2007
NATIONAL WEATHER SERVICE: for Safety, for Work, for Fun - FOR LIFE